createdAt,value
2019-05-19T00:00:27.030Z,17.42
2019-05-19T00:03:00.383Z,19.02
2019-05-19T00:05:34.794Z,14.43
2019-05-19T00:08:09.737Z,20.12
2019-05-19T00:10:43.100Z,16.75
2019-05-19T00:13:16.455Z,16.37
2019-05-19T00:15:51.015Z,18.57
2019-05-19T00:18:24.617Z,17.73
2019-05-19T00:20:59.575Z,17.73
2019-05-19T00:23:32.745Z,16.25
2019-05-19T00:26:06.128Z,14.07
2019-05-19T00:28:39.563Z,18.25
2019-05-19T00:31:12.943Z,17.67
2019-05-19T00:33:46.355Z,17.07
2019-05-19T00:36:19.800Z,16.67
2019-05-19T00:38:53.218Z,14.95
2019-05-19T00:41:26.611Z,21.77
2019-05-19T00:44:00.052Z,19.25
2019-05-19T00:46:34.962Z,15.45
2019-05-19T00:49:08.149Z,15.03
2019-05-19T00:51:41.489Z,14.10
2019-05-19T00:54:14.828Z,18.77
2019-05-19T00:56:49.777Z,20.80
2019-05-19T00:59:23.140Z,16.62
2019-05-19T01:01:56.468Z,17.52
2019-05-19T01:04:29.788Z,14.47
2019-05-19T01:07:03.105Z,18.77
2019-05-19T01:09:36.452Z,16.02
2019-05-19T01:12:09.761Z,18.17
2019-05-19T01:14:43.107Z,16.20
2019-05-19T01:17:16.417Z,16.82
2019-05-19T01:19:55.932Z,15.00
2019-05-19T01:22:24.805Z,17.12
2019-05-19T01:24:58.102Z,16.27
2019-05-19T01:27:31.439Z,18.92
2019-05-19T01:30:09.268Z,15.50
2019-05-19T01:32:42.646Z,16.23
2019-05-19T01:35:16.264Z,16.30
2019-05-19T01:37:49.634Z,17.10
2019-05-19T01:40:23.006Z,20.65
2019-05-19T01:42:56.321Z,17.10
2019-05-19T01:45:29.847Z,17.73
2019-05-19T01:48:03.170Z,17.87
2019-05-19T01:50:36.521Z,16.02
2019-05-19T01:53:09.827Z,17.32
2019-05-19T01:55:43.179Z,16.32
2019-05-19T01:58:17.559Z,19.73
2019-05-19T02:00:50.907Z,18.23
2019-05-19T02:03:24.227Z,20.85
2019-05-19T02:05:57.572Z,18.00
2019-05-19T02:08:30.930Z,16.93
2019-05-19T02:11:04.291Z,17.15
2019-05-19T02:13:37.609Z,16.23
2019-05-19T02:16:10.973Z,16.75
2019-05-19T02:18:44.292Z,17.20
2019-05-19T02:21:17.647Z,17.37
2019-05-19T02:23:51.017Z,22.25
2019-05-19T02:26:24.357Z,17.52
2019-05-19T02:28:57.665Z,17.02
2019-05-19T02:31:31.008Z,18.82
2019-05-19T02:34:04.323Z,18.07
2019-05-19T02:36:37.665Z,21.82
2019-05-19T02:39:10.977Z,19.15
2019-05-19T02:41:45.552Z,17.05
2019-05-19T02:44:18.881Z,18.73
2019-05-19T02:46:52.284Z,17.82
2019-05-19T02:49:26.054Z,21.97
2019-05-19T02:51:59.388Z,19.48
2019-05-19T02:54:32.737Z,18.52
2019-05-19T02:57:06.077Z,17.98
2019-05-19T02:59:39.463Z,19.30
2019-05-19T03:02:12.815Z,22.45
2019-05-19T03:04:46.127Z,17.00
2019-05-19T03:07:19.493Z,17.90
2019-05-19T03:09:52.796Z,18.73
2019-05-19T03:12:26.140Z,19.02
2019-05-19T03:14:59.453Z,21.27
2019-05-19T03:17:32.807Z,19.70
2019-05-19T03:20:06.144Z,18.05
2019-05-19T03:22:39.500Z,17.37
2019-05-19T03:25:14.345Z,20.02
2019-05-19T03:27:47.691Z,18.85
2019-05-19T03:30:21.019Z,19.65
2019-05-19T03:32:54.371Z,18.02
2019-05-19T03:35:27.502Z,16.85
2019-05-19T03:38:00.871Z,17.25
2019-05-19T03:40:34.202Z,17.95
2019-05-19T03:43:07.538Z,21.70
2019-05-19T03:45:40.860Z,19.87
2019-05-19T03:48:14.200Z,22.35
2019-05-19T03:50:47.548Z,18.62
2019-05-19T03:53:20.900Z,20.65
2019-05-19T03:55:54.185Z,21.82
2019-05-19T03:58:27.524Z,17.15
2019-05-19T04:01:00.879Z,22.10
2019-05-19T04:03:34.203Z,16.48
2019-05-19T04:06:07.510Z,17.12
2019-05-19T04:08:40.836Z,21.15
2019-05-19T04:11:14.150Z,18.62
2019-05-19T04:13:47.498Z,20.92
2019-05-19T04:16:20.815Z,19.82
2019-05-19T04:18:54.136Z,17.20
2019-05-19T04:21:27.472Z,19.85
2019-05-19T04:24:00.778Z,17.27
2019-05-19T04:26:34.148Z,18.73
2019-05-19T04:29:06.711Z,17.52
2019-05-19T04:31:39.910Z,18.23
2019-05-19T04:34:13.218Z,17.25
2019-05-19T04:36:47.650Z,18.00
2019-05-19T04:39:21.026Z,17.90
2019-05-19T04:41:54.378Z,21.97
2019-05-19T04:44:27.947Z,19.40
2019-05-19T04:47:01.287Z,19.73
2019-05-19T04:49:34.616Z,22.50
2019-05-19T04:52:08.210Z,20.08
2019-05-19T04:54:41.532Z,21.40
2019-05-19T04:57:14.879Z,19.27
2019-05-19T04:59:48.196Z,18.70
2019-05-19T05:02:21.573Z,20.85
2019-05-19T05:04:55.419Z,19.32
2019-05-19T05:07:28.743Z,17.45
2019-05-19T05:10:02.102Z,20.37
2019-05-19T05:12:35.413Z,17.87
2019-05-19T05:15:08.769Z,17.62
2019-05-19T05:17:42.094Z,22.07
2019-05-19T05:20:15.464Z,17.90
2019-05-19T05:22:48.626Z,17.52
2019-05-19T05:25:22.094Z,18.00
2019-05-19T05:27:55.483Z,18.67
2019-05-19T05:30:28.886Z,22.05
2019-05-19T05:33:02.271Z,22.35
2019-05-19T05:35:35.621Z,19.45
2019-05-19T05:38:09.005Z,17.52
2019-05-19T05:40:42.357Z,19.82
2019-05-19T05:43:15.695Z,21.33
2019-05-19T05:45:49.050Z,17.98
2019-05-19T05:48:22.377Z,18.80
2019-05-19T05:50:56.727Z,19.67
2019-05-19T05:53:30.058Z,19.17
2019-05-19T05:56:03.403Z,16.52
2019-05-19T05:58:36.729Z,21.33
2019-05-19T06:01:10.065Z,18.12
2019-05-19T06:03:43.380Z,20.68
2019-05-19T06:06:16.740Z,19.20
2019-05-19T06:08:50.045Z,16.40
2019-05-19T06:11:23.469Z,20.15
2019-05-19T06:13:56.836Z,16.37
2019-05-19T06:16:31.282Z,20.27
2019-05-19T06:19:04.634Z,17.65
2019-05-19T06:21:37.974Z,15.90
2019-05-19T06:24:11.333Z,18.37
2019-05-19T06:26:44.649Z,16.50
2019-05-19T06:29:18.025Z,15.78
2019-05-19T06:31:51.415Z,15.90
2019-05-19T06:34:24.773Z,16.00
2019-05-19T06:36:58.094Z,15.25
2019-05-19T06:39:31.446Z,17.23
2019-05-19T06:42:04.760Z,16.70
2019-05-19T06:44:38.091Z,17.95
2019-05-19T06:47:11.416Z,15.75
2019-05-19T06:49:44.778Z,15.95
2019-05-19T06:52:18.100Z,15.58
2019-05-19T06:54:52.632Z,18.27
2019-05-19T06:57:25.928Z,16.50
2019-05-19T06:59:59.283Z,18.25
2019-05-19T07:02:32.970Z,15.30
2019-05-19T07:05:06.566Z,16.87
2019-05-19T07:07:40.441Z,14.78
2019-05-19T07:10:13.804Z,14.33
2019-05-19T07:12:47.112Z,15.53
2019-05-19T07:15:20.473Z,19.20
2019-05-19T07:17:53.822Z,16.65
2019-05-19T07:20:27.214Z,16.10
2019-05-19T07:23:00.534Z,16.07
2019-05-19T07:25:34.070Z,16.05
2019-05-19T07:28:07.418Z,13.93
2019-05-19T07:30:40.781Z,16.70
2019-05-19T07:33:14.251Z,14.80
2019-05-19T07:35:47.572Z,14.43
2019-05-19T07:38:21.086Z,15.93
2019-05-19T07:40:54.446Z,17.52
2019-05-19T07:43:27.760Z,16.82
2019-05-19T07:46:01.111Z,14.78
2019-05-19T07:48:34.467Z,13.72
2019-05-19T07:51:07.816Z,13.48
2019-05-19T07:53:43.274Z,14.33
2019-05-19T07:56:16.230Z,15.15
2019-05-19T07:58:49.553Z,13.75
2019-05-19T08:01:22.932Z,13.90
2019-05-19T08:03:56.397Z,15.88
2019-05-19T08:06:31.393Z,13.60
2019-05-19T08:09:05.258Z,14.40
2019-05-19T08:11:38.625Z,13.15
2019-05-19T08:14:11.931Z,14.05
2019-05-19T08:16:45.276Z,12.82
2019-05-19T08:19:18.671Z,15.58
2019-05-19T08:21:51.972Z,13.98
2019-05-19T08:24:25.320Z,12.90
2019-05-19T08:26:58.652Z,12.25
2019-05-19T08:29:32.014Z,13.90
2019-05-19T08:32:05.342Z,12.98
2019-05-19T08:34:38.711Z,12.55
2019-05-19T08:37:12.043Z,14.75
2019-05-19T08:39:45.396Z,15.03
2019-05-19T08:42:18.834Z,13.15
2019-05-19T08:44:52.000Z,12.70
2019-05-19T08:47:25.354Z,14.65
2019-05-19T08:49:58.688Z,12.82
2019-05-19T08:52:32.032Z,15.00
2019-05-19T08:55:05.446Z,12.03
2019-05-19T08:57:38.769Z,14.43
2019-05-19T09:00:12.150Z,16.52
2019-05-19T09:02:45.482Z,12.40
2019-05-19T09:05:18.831Z,12.58
2019-05-19T09:07:52.162Z,12.23
2019-05-19T09:10:25.528Z,14.25
2019-05-19T09:12:58.858Z,15.23
2019-05-19T09:15:32.218Z,14.03
2019-05-19T09:18:05.562Z,14.40
2019-05-19T09:20:40.187Z,14.55
2019-05-19T09:23:13.560Z,13.22
2019-05-19T09:25:46.910Z,18.60
2019-05-19T09:28:20.289Z,23.23
2019-05-19T09:30:53.884Z,20.65
2019-05-19T09:33:28.402Z,20.50
2019-05-19T09:36:01.762Z,22.15
2019-05-19T09:38:35.102Z,24.00
2019-05-19T09:41:08.464Z,25.43
2019-05-19T09:43:41.798Z,22.35
2019-05-19T09:46:15.146Z,24.15
2019-05-19T09:48:48.511Z,22.02
2019-05-19T09:51:21.879Z,20.72
2019-05-19T09:53:55.214Z,23.10
2019-05-19T09:56:28.575Z,20.57
2019-05-19T09:59:01.906Z,20.25
2019-05-19T10:01:35.223Z,21.75
2019-05-19T10:04:08.627Z,20.23
2019-05-19T10:06:42.177Z,16.42
2019-05-19T10:09:18.305Z,20.23
2019-05-19T10:12:03.904Z,17.65
2019-05-19T10:14:37.287Z,18.82
2019-05-19T10:17:10.662Z,15.43
2019-05-19T10:19:44.003Z,13.78
2019-05-19T10:22:19.112Z,18.27
2019-05-19T10:25:10.416Z,15.95
2019-05-19T10:27:27.463Z,14.65
2019-05-19T10:30:00.801Z,16.17
2019-05-19T10:32:34.214Z,14.78
2019-05-19T10:35:07.543Z,15.23
2019-05-19T10:37:40.863Z,13.35
2019-05-19T10:40:14.214Z,14.55
2019-05-19T10:42:47.576Z,15.23
2019-05-19T10:45:21.419Z,13.60
2019-05-19T10:47:54.738Z,13.15
2019-05-19T10:50:28.097Z,13.38
2019-05-19T10:53:01.430Z,15.48
2019-05-19T10:55:36.786Z,13.15
2019-05-19T10:58:09.938Z,12.50
2019-05-19T11:00:43.352Z,15.80
2019-05-19T11:03:16.685Z,15.05
2019-05-19T11:05:50.051Z,13.00
2019-05-19T11:08:23.366Z,12.82
2019-05-19T11:10:56.818Z,13.28
2019-05-19T11:13:30.150Z,12.28
2019-05-19T11:16:03.509Z,16.62
2019-05-19T11:18:37.007Z,13.20
2019-05-19T11:21:10.426Z,14.98
2019-05-19T11:23:43.740Z,15.98
2019-05-19T11:26:17.099Z,17.50
2019-05-19T11:28:50.676Z,17.02
2019-05-19T11:31:24.035Z,14.43
2019-05-19T11:33:58.426Z,14.93
2019-05-19T11:36:31.836Z,19.37
2019-05-19T11:39:07.076Z,13.60
2019-05-19T11:41:40.455Z,17.75
2019-05-19T11:44:13.947Z,22.45
2019-05-19T11:46:47.286Z,17.40
2019-05-19T11:49:20.695Z,17.27
2019-05-19T11:51:54.050Z,15.83
2019-05-19T11:54:27.615Z,16.23
2019-05-19T11:57:01.049Z,16.52
2019-05-19T11:59:34.405Z,14.87
2019-05-19T12:02:07.815Z,13.70
2019-05-19T12:04:41.151Z,18.02
2019-05-19T12:07:14.521Z,13.15
2019-05-19T12:09:48.001Z,14.83
2019-05-19T12:12:21.411Z,17.07
2019-05-19T12:14:54.770Z,20.00
2019-05-19T12:17:28.310Z,22.55
2019-05-19T12:20:01.538Z,20.75
2019-05-19T12:22:34.878Z,18.17
2019-05-19T12:25:08.328Z,26.00
2019-05-19T12:27:41.905Z,23.85
2019-05-19T12:30:18.474Z,27.35
2019-05-19T12:32:51.877Z,27.60
2019-05-19T12:35:25.530Z,29.50
2019-05-19T12:37:58.838Z,37.00
2019-05-19T12:40:33.077Z,32.10
2019-05-19T12:43:06.422Z,30.40
2019-05-19T12:45:39.849Z,30.05
2019-05-19T12:48:13.165Z,36.45
2019-05-19T12:50:46.519Z,38.85
2019-05-19T12:53:19.837Z,34.35
2019-05-19T12:55:53.163Z,31.52
2019-05-19T12:58:26.502Z,31.23
2019-05-19T13:01:00.058Z,31.62
2019-05-19T13:03:33.668Z,34.70
2019-05-19T13:06:07.084Z,40.00
2019-05-19T13:08:40.393Z,37.13
2019-05-19T13:11:13.745Z,38.17
2019-05-19T13:13:47.209Z,36.90
2019-05-19T13:16:20.592Z,38.17
2019-05-19T13:18:53.938Z,40.98
2019-05-19T13:21:27.318Z,32.15
2019-05-19T13:24:00.659Z,29.20
2019-05-19T13:26:34.003Z,39.08
2019-05-19T13:29:07.321Z,30.57
2019-05-19T13:31:40.825Z,30.40
2019-05-19T13:34:15.217Z,30.32
2019-05-19T13:36:49.639Z,28.52
2019-05-19T13:39:22.949Z,30.15
2019-05-19T13:41:56.122Z,28.65
2019-05-19T13:44:29.455Z,28.00
2019-05-19T13:47:02.813Z,35.60
2019-05-19T13:49:36.176Z,29.32
2019-05-19T13:52:09.525Z,22.25
2019-05-19T13:54:42.834Z,29.37
2019-05-19T13:57:16.220Z,25.43
2019-05-19T13:59:49.553Z,28.45
2019-05-19T14:02:23.976Z,28.87
2019-05-19T14:04:58.973Z,25.72
2019-05-19T14:07:32.335Z,25.00
2019-05-19T14:10:06.036Z,23.87
2019-05-19T14:12:39.395Z,22.95
2019-05-19T14:15:12.750Z,34.95
2019-05-19T14:17:46.208Z,29.30
2019-05-19T14:20:19.539Z,24.85
2019-05-19T14:22:52.972Z,30.00
2019-05-19T14:25:26.279Z,27.40
2019-05-19T14:27:59.637Z,29.02
2019-05-19T14:30:32.976Z,25.32
2019-05-19T14:33:06.343Z,25.35
2019-05-19T14:35:39.670Z,22.87
2019-05-19T14:38:13.018Z,22.22
2019-05-19T14:40:47.943Z,19.67
2019-05-19T14:43:23.801Z,26.48
2019-05-19T14:45:57.221Z,19.82
2019-05-19T14:48:30.587Z,21.48
2019-05-19T14:51:05.540Z,22.00
2019-05-19T14:53:38.867Z,17.90
2019-05-19T14:56:12.277Z,20.90
2019-05-19T14:58:45.620Z,17.62
2019-05-19T15:01:18.978Z,17.95
2019-05-19T15:03:52.356Z,17.87
2019-05-19T15:06:25.679Z,16.52
2019-05-19T15:08:59.269Z,17.60
2019-05-19T15:11:32.866Z,19.13
2019-05-19T15:14:07.190Z,19.00
2019-05-19T15:16:40.502Z,16.77
2019-05-19T15:19:13.857Z,17.67
2019-05-19T15:21:47.169Z,16.70
2019-05-19T15:24:20.545Z,16.45
2019-05-19T15:26:54.589Z,18.57
2019-05-19T15:29:28.241Z,15.95
2019-05-19T15:32:01.852Z,17.48
2019-05-19T15:34:35.374Z,14.93
2019-05-19T15:37:08.681Z,16.90
2019-05-19T15:39:42.034Z,17.05
2019-05-19T15:42:15.335Z,16.55
2019-05-19T15:44:48.669Z,14.83
2019-05-19T15:47:22.015Z,14.35
2019-05-19T15:49:55.339Z,17.40
2019-05-19T15:52:28.628Z,13.83
2019-05-19T15:55:02.056Z,16.85
2019-05-19T15:57:35.430Z,14.70
2019-05-19T16:00:08.931Z,14.75
2019-05-19T16:02:42.441Z,14.50
2019-05-19T16:05:15.781Z,15.18
2019-05-19T16:07:49.191Z,16.02
2019-05-19T16:10:22.567Z,16.65
2019-05-19T16:12:55.912Z,14.98
2019-05-19T16:15:29.258Z,14.43
2019-05-19T16:18:02.750Z,14.63
2019-05-19T16:20:36.175Z,14.70
2019-05-19T16:23:09.500Z,14.07
2019-05-19T16:25:42.858Z,13.93
2019-05-19T16:28:28.648Z,15.15
2019-05-19T16:30:53.012Z,12.93
2019-05-19T16:33:26.601Z,16.67
2019-05-19T16:35:59.987Z,14.03
2019-05-19T16:38:33.307Z,14.75
2019-05-19T16:41:08.238Z,14.33
2019-05-19T16:43:41.606Z,13.28
2019-05-19T16:46:15.124Z,14.35
2019-05-19T16:48:48.480Z,13.50
2019-05-19T16:51:22.918Z,12.90
2019-05-19T16:53:56.295Z,15.40
2019-05-19T16:56:29.639Z,12.82
2019-05-19T16:59:03.003Z,13.32
2019-05-19T17:01:37.075Z,14.78
2019-05-19T17:04:12.101Z,13.18
2019-05-19T17:06:47.131Z,12.40
2019-05-19T17:09:20.667Z,12.73
2019-05-19T17:11:54.115Z,12.40
2019-05-19T17:14:28.623Z,13.13
2019-05-19T17:17:01.981Z,14.93
2019-05-19T17:19:35.313Z,12.05
2019-05-19T17:22:10.406Z,12.70
2019-05-19T17:24:43.751Z,12.45
2019-05-19T17:27:17.098Z,12.25
2019-05-19T17:29:50.404Z,12.25
2019-05-19T17:32:23.785Z,12.95
2019-05-19T17:34:57.197Z,11.03
2019-05-19T17:37:31.155Z,15.03
2019-05-19T17:40:04.952Z,13.18
2019-05-19T17:42:38.311Z,12.13
2019-05-19T17:45:11.715Z,12.30
2019-05-19T17:47:45.097Z,11.40
2019-05-19T17:50:30.022Z,11.63
2019-05-19T17:53:03.354Z,14.10
2019-05-19T17:55:36.681Z,11.50
2019-05-19T17:58:10.039Z,12.00
2019-05-19T18:00:44.308Z,14.05
2019-05-19T18:03:17.856Z,13.35
2019-05-19T18:05:51.179Z,15.10
2019-05-19T18:08:24.710Z,12.47
2019-05-19T18:10:58.190Z,12.78
2019-05-19T18:13:31.618Z,12.50
2019-05-19T18:16:04.938Z,13.98
2019-05-19T18:18:39.216Z,14.05
2019-05-19T18:21:12.640Z,15.47
2019-05-19T18:23:45.969Z,13.93
2019-05-19T18:26:19.310Z,14.35
2019-05-19T18:28:52.619Z,13.50
2019-05-19T18:31:25.981Z,13.35
2019-05-19T18:33:59.314Z,13.78
2019-05-19T18:36:32.706Z,12.58
2019-05-19T18:39:06.150Z,13.80
2019-05-19T18:41:39.568Z,13.88
2019-05-19T18:44:12.928Z,14.90
2019-05-19T18:46:46.284Z,14.07
2019-05-19T18:49:19.621Z,13.55
2019-05-19T18:51:52.984Z,12.68
2019-05-19T18:54:26.301Z,13.15
2019-05-19T18:57:00.822Z,13.32
2019-05-19T18:59:46.565Z,13.98
2019-05-19T19:02:09.205Z,14.40
2019-05-19T19:04:42.537Z,12.70
2019-05-19T19:07:15.870Z,11.48
2019-05-19T19:09:49.230Z,12.63
2019-05-19T19:12:23.886Z,14.25
2019-05-19T19:14:57.529Z,12.13
2019-05-19T19:17:30.882Z,11.48
2019-05-19T19:20:07.497Z,13.85
2019-05-19T19:22:41.030Z,13.20
2019-05-19T19:25:14.375Z,11.63
2019-05-19T19:27:47.775Z,12.53
2019-05-19T19:30:21.210Z,11.20
2019-05-19T19:32:54.523Z,12.88
2019-05-19T19:35:38.301Z,11.93
2019-05-19T19:38:03.236Z,11.45
2019-05-19T19:40:36.676Z,12.95
2019-05-19T19:43:09.987Z,11.50
2019-05-19T19:45:43.421Z,12.40
2019-05-19T19:48:18.345Z,13.13
2019-05-19T19:50:51.757Z,20.52
2019-05-19T19:53:25.081Z,15.20
2019-05-19T19:55:58.433Z,14.53
2019-05-19T19:58:31.805Z,14.40
2019-05-19T20:01:05.154Z,16.57
2019-05-19T20:03:40.263Z,13.45
2019-05-19T20:06:13.904Z,13.88
2019-05-19T20:08:47.315Z,17.42
2019-05-19T20:11:20.690Z,16.45
2019-05-19T20:13:54.050Z,13.48
2019-05-19T20:16:28.501Z,17.90
2019-05-19T20:19:01.833Z,13.75
2019-05-19T20:21:35.177Z,13.95
2019-05-19T20:24:08.537Z,15.38
2019-05-19T20:26:42.013Z,13.68
2019-05-19T20:29:15.388Z,15.00
2019-05-19T20:31:48.883Z,13.95
2019-05-19T20:34:22.264Z,12.63
2019-05-19T20:36:55.623Z,13.53
2019-05-19T20:39:28.970Z,10.75
2019-05-19T20:42:02.356Z,12.25
2019-05-19T20:44:35.701Z,11.12
2019-05-19T20:47:09.062Z,12.03
2019-05-19T20:49:42.387Z,10.20
2019-05-19T20:52:16.004Z,10.78
2019-05-19T20:54:49.233Z,9.93
2019-05-19T20:57:22.917Z,8.58
2019-05-19T20:59:56.436Z,8.15
2019-05-19T21:02:29.961Z,8.00
2019-05-19T21:05:04.232Z,12.78
2019-05-19T21:07:37.850Z,10.75
2019-05-19T21:10:12.270Z,11.22
2019-05-19T21:12:45.620Z,13.30
2019-05-19T21:15:19.112Z,16.00
2019-05-19T21:17:52.454Z,11.60
2019-05-19T21:20:25.959Z,15.77
2019-05-19T21:22:59.109Z,14.05
2019-05-19T21:25:33.114Z,10.38
2019-05-19T21:28:06.439Z,9.60
2019-05-19T21:30:39.942Z,12.30
2019-05-19T21:33:13.302Z,8.48
2019-05-19T21:35:46.615Z,10.15
2019-05-19T21:38:19.928Z,18.77
2019-05-19T21:40:53.275Z,8.70
2019-05-19T21:43:26.666Z,9.55
2019-05-19T21:46:00.038Z,11.80
2019-05-19T21:48:33.355Z,9.65
2019-05-19T21:51:06.724Z,8.55
2019-05-19T21:53:40.195Z,7.42
2019-05-19T21:56:13.538Z,12.43
2019-05-19T21:58:46.875Z,9.10
2019-05-19T22:01:23.182Z,9.50
2019-05-19T22:03:55.356Z,7.62
2019-05-19T22:06:29.784Z,7.30
2019-05-19T22:09:03.739Z,7.30
2019-05-19T22:11:37.159Z,7.67
2019-05-19T22:14:10.456Z,10.43
2019-05-19T22:16:43.962Z,8.48
2019-05-19T22:19:17.250Z,8.15
2019-05-19T22:21:50.628Z,10.40
2019-05-19T22:24:23.949Z,7.35
2019-05-19T22:26:57.327Z,7.92
2019-05-19T22:29:30.736Z,7.12
2019-05-19T22:32:04.065Z,6.58
2019-05-19T22:34:37.368Z,7.92
2019-05-19T22:37:10.728Z,7.10
2019-05-19T22:39:44.053Z,9.03
2019-05-19T22:42:18.947Z,8.35
2019-05-19T22:44:52.258Z,6.65
2019-05-19T22:47:27.163Z,7.30
2019-05-19T22:50:00.465Z,8.00
2019-05-19T22:52:33.793Z,7.10
2019-05-19T22:55:07.268Z,7.80
2019-05-19T22:57:40.642Z,6.80
2019-05-19T23:00:15.335Z,6.00
2019-05-19T23:02:50.276Z,6.22
2019-05-19T23:05:23.906Z,7.20
2019-05-19T23:07:57.246Z,5.90
2019-05-19T23:10:30.609Z,6.53
2019-05-19T23:13:03.933Z,5.95
2019-05-19T23:15:37.339Z,7.12
2019-05-19T23:18:10.713Z,6.22
2019-05-19T23:20:44.042Z,5.33
2019-05-19T23:23:17.370Z,5.75
2019-05-19T23:25:50.680Z,5.95
2019-05-19T23:28:24.025Z,5.83
2019-05-19T23:30:57.358Z,5.60
2019-05-19T23:33:30.701Z,5.45
2019-05-19T23:36:05.595Z,6.62
2019-05-19T23:38:40.536Z,5.97
2019-05-19T23:41:13.830Z,6.95
2019-05-19T23:43:47.147Z,5.25
2019-05-19T23:46:20.493Z,5.75
2019-05-19T23:48:53.792Z,5.15
2019-05-19T23:51:28.312Z,5.28
2019-05-19T23:54:01.634Z,5.00
2019-05-19T23:56:34.971Z,6.30
2019-05-19T23:59:08.297Z,5.95
